Leeds, North Dakota
Current Conditions -  °F | °C
As of 5:55 AM on Thursday 27 Nov 2014 (Local Time) from K9D7 Reporting Station
Clear Clear  
Wind Chill: -31°   Ceiling: Unl
Heat Index: -17°   Visibility: 10mi
Dew Point: -20°   Wind: 6mph
Humidity: 84%   Direction: 170°S
Pressure: 30.41"   Gusts: NA
Location:  48.29°N, 99.44°W
Report Text: K9D7 271155Z AUTO 17005KT 10SM CLR M27/M29 A3041 RMK AO2
Loading
Personal Weather Stations






























Interactive Weather Map New forecast layout! Learn more

10-Day Weather Forecast

Advertisements
Track Severe Weather on mobile